sensor_id;sensor_type;location;lat;lon;timestamp;temperature;humidity
14682;DHT22;7429;52.498;13.480;2024-01-11T00:00:50;-6.00;99.90
14682;DHT22;7429;52.498;13.480;2024-01-11T00:03:53;-6.10;99.90
14682;DHT22;7429;52.498;13.480;2024-01-11T00:06:59;-6.10;99.90
14682;DHT22;7429;52.498;13.480;2024-01-11T00:10:02;-6.10;99.90
14682;DHT22;7429;52.498;13.480;2024-01-11T00:13:07;-6.20;99.90
14682;DHT22;7429;52.498;13.480;2024-01-11T00:16:10;-6.20;99.90
14682;DHT22;7429;52.498;13.480;2024-01-11T00:19:13;-6.30;99.90
14682;DHT22;7429;52.498;13.480;2024-01-11T00:22:16;-6.30;99.90
14682;DHT22;7429;52.498;13.480;2024-01-11T00:25:19;-6.30;99.90
14682;DHT22;7429;52.498;13.480;2024-01-11T00:28:24;-6.30;99.90
14682;DHT22;7429;52.498;13.480;2024-01-11T00:31:27;-6.30;99.90
14682;DHT22;7429;52.498;13.480;2024-01-11T00:34:30;-6.40;99.90
14682;DHT22;7429;52.498;13.480;2024-01-11T00:37:33;-6.40;99.90
14682;DHT22;7429;52.498;13.480;2024-01-11T00:40:36;-6.30;99.90
14682;DHT22;7429;52.498;13.480;2024-01-11T00:43:41;-6.30;99.90
14682;DHT22;7429;52.498;13.480;2024-01-11T00:46:47;-6.30;99.90
14682;DHT22;7429;52.498;13.480;2024-01-11T00:49:50;-6.30;99.90
14682;DHT22;7429;52.498;13.480;2024-01-11T00:52:56;-6.20;99.90
14682;DHT22;7429;52.498;13.480;2024-01-11T00:55:59;-6.30;99.90
14682;DHT22;7429;52.498;13.480;2024-01-11T00:59:04;-6.30;99.90
14682;DHT22;7429;52.498;13.480;2024-01-11T01:02:07;-6.30;99.90
14682;DHT22;7429;52.498;13.480;2024-01-11T01:05:11;-6.20;99.90
14682;DHT22;7429;52.498;13.480;2024-01-11T01:08:15;-6.30;99.90
14682;DHT22;7429;52.498;13.480;2024-01-11T01:11:18;-6.40;99.90
14682;DHT22;7429;52.498;13.480;2024-01-11T01:14:22;-6.30;99.90
14682;DHT22;7429;52.498;13.480;2024-01-11T01:17:25;-6.30;99.90
14682;DHT22;7429;52.498;13.480;2024-01-11T01:20:29;-6.40;99.90
14682;DHT22;7429;52.498;13.480;2024-01-11T01:23:32;-6.30;99.90
14682;DHT22;7429;52.498;13.480;2024-01-11T01:26:35;-6.30;99.90
14682;DHT22;7429;52.498;13.480;2024-01-11T01:29:39;-6.30;99.90
14682;DHT22;7429;52.498;13.480;2024-01-11T01:32:43;-6.20;99.90
14682;DHT22;7429;52.498;13.480;2024-01-11T01:35:46;-6.20;99.90
14682;DHT22;7429;52.498;13.480;2024-01-11T01:38:49;-6.20;99.90
14682;DHT22;7429;52.498;13.480;2024-01-11T01:41:52;-6.20;99.90
14682;DHT22;7429;52.498;13.480;2024-01-11T01:44:56;-6.10;99.90
14682;DHT22;7429;52.498;13.480;2024-01-11T01:48:00;-6.20;99.90
14682;DHT22;7429;52.498;13.480;2024-01-11T01:51:03;-6.20;99.90
14682;DHT22;7429;52.498;13.480;2024-01-11T01:54:07;-6.20;99.90
14682;DHT22;7429;52.498;13.480;2024-01-11T01:57:11;-6.20;99.90
14682;DHT22;7429;52.498;13.480;2024-01-11T02:00:16;-6.20;99.90
14682;DHT22;7429;52.498;13.480;2024-01-11T02:03:20;-6.20;99.90
14682;DHT22;7429;52.498;13.480;2024-01-11T02:06:25;-6.20;99.90
14682;DHT22;7429;52.498;13.480;2024-01-11T02:09:33;-6.10;99.90
14682;DHT22;7429;52.498;13.480;2024-01-11T02:12:36;-6.20;99.90
14682;DHT22;7429;52.498;13.480;2024-01-11T02:15:41;-6.20;99.90
14682;DHT22;7429;52.498;13.480;2024-01-11T02:18:44;-6.20;99.90
14682;DHT22;7429;52.498;13.480;2024-01-11T02:21:49;-6.20;99.90
14682;DHT22;7429;52.498;13.480;2024-01-11T02:24:56;-6.20;99.90
14682;DHT22;7429;52.498;13.480;2024-01-11T02:28:00;-6.20;99.90
14682;DHT22;7429;52.498;13.480;2024-01-11T02:31:03;-6.20;99.90
14682;DHT22;7429;52.498;13.480;2024-01-11T02:34:07;-6.10;99.90
14682;DHT22;7429;52.498;13.480;2024-01-11T02:37:10;-6.10;99.90
14682;DHT22;7429;52.498;13.480;2024-01-11T02:40:15;-6.10;99.90
14682;DHT22;7429;52.498;13.480;2024-01-11T02:43:18;-6.00;99.90
14682;DHT22;7429;52.498;13.480;2024-01-11T02:46:21;-6.00;99.90
14682;DHT22;7429;52.498;13.480;2024-01-11T02:49:24;-6.00;99.90
14682;DHT22;7429;52.498;13.480;2024-01-11T02:52:27;-6.00;99.90
14682;DHT22;7429;52.498;13.480;2024-01-11T02:55:31;-6.00;99.90
14682;DHT22;7429;52.498;13.480;2024-01-11T02:58:34;-6.00;99.90
14682;DHT22;7429;52.498;13.480;2024-01-11T03:01:38;-6.00;99.90
14682;DHT22;7429;52.498;13.480;2024-01-11T03:04:41;-5.90;99.90
14682;DHT22;7429;52.498;13.480;2024-01-11T03:07:44;-5.90;99.90
14682;DHT22;7429;52.498;13.480;2024-01-11T03:10:48;-5.90;99.90
14682;DHT22;7429;52.498;13.480;2024-01-11T03:13:51;-5.90;99.90
14682;DHT22;7429;52.498;13.480;2024-01-11T03:16:54;-5.90;99.90
14682;DHT22;7429;52.498;13.480;2024-01-11T03:19:57;-5.90;99.90
14682;DHT22;7429;52.498;13.480;2024-01-11T03:23:01;-5.80;99.90
14682;DHT22;7429;52.498;13.480;2024-01-11T03:26:13;-5.80;99.90
14682;DHT22;7429;52.498;13.480;2024-01-11T03:29:16;-5.90;99.90
14682;DHT22;7429;52.498;13.480;2024-01-11T03:32:19;-5.90;99.90
14682;DHT22;7429;52.498;13.480;2024-01-11T03:35:23;-5.80;99.90
14682;DHT22;7429;52.498;13.480;2024-01-11T03:38:26;-5.80;99.90
14682;DHT22;7429;52.498;13.480;2024-01-11T03:41:30;-5.80;99.90
14682;DHT22;7429;52.498;13.480;2024-01-11T03:44:36;-5.80;99.90
14682;DHT22;7429;52.498;13.480;2024-01-11T03:47:40;-5.80;99.90
14682;DHT22;7429;52.498;13.480;2024-01-11T03:50:44;-5.90;99.90
14682;DHT22;7429;52.498;13.480;2024-01-11T03:53:47;-5.80;99.90
14682;DHT22;7429;52.498;13.480;2024-01-11T03:56:52;-5.90;99.90
14682;DHT22;7429;52.498;13.480;2024-01-11T03:59:55;-5.90;99.90
14682;DHT22;7429;52.498;13.480;2024-01-11T04:02:58;-5.90;99.90
14682;DHT22;7429;52.498;13.480;2024-01-11T04:06:01;-5.80;99.90
14682;DHT22;7429;52.498;13.480;2024-01-11T04:09:04;-5.70;99.90
14682;DHT22;7429;52.498;13.480;2024-01-11T04:12:09;-5.70;99.90
14682;DHT22;7429;52.498;13.480;2024-01-11T04:15:12;-5.70;99.90
14682;DHT22;7429;52.498;13.480;2024-01-11T04:18:16;-5.70;99.90
14682;DHT22;7429;52.498;13.480;2024-01-11T04:21:22;-5.60;99.90
14682;DHT22;7429;52.498;13.480;2024-01-11T04:24:26;-5.60;99.90
14682;DHT22;7429;52.498;13.480;2024-01-11T04:27:30;-5.50;99.90
14682;DHT22;7429;52.498;13.480;2024-01-11T04:30:33;-5.50;99.90
14682;DHT22;7429;52.498;13.480;2024-01-11T04:33:39;-5.40;99.90
14682;DHT22;7429;52.498;13.480;2024-01-11T04:36:43;-5.30;99.90
14682;DHT22;7429;52.498;13.480;2024-01-11T04:39:47;-5.30;99.90
14682;DHT22;7429;52.498;13.480;2024-01-11T04:42:51;-5.20;99.90
14682;DHT22;7429;52.498;13.480;2024-01-11T04:45:54;-5.10;99.90
14682;DHT22;7429;52.498;13.480;2024-01-11T04:48:58;-5.00;99.90
14682;DHT22;7429;52.498;13.480;2024-01-11T04:52:01;-5.00;99.90
14682;DHT22;7429;52.498;13.480;2024-01-11T04:55:05;-4.90;99.90
14682;DHT22;7429;52.498;13.480;2024-01-11T04:58:10;-4.90;99.90
14682;DHT22;7429;52.498;13.480;2024-01-11T05:01:14;-4.80;99.90
14682;DHT22;7429;52.498;13.480;2024-01-11T05:04:20;-4.70;99.90
14682;DHT22;7429;52.498;13.480;2024-01-11T05:07:23;-4.60;99.90
14682;DHT22;7429;52.498;13.480;2024-01-11T05:10:26;-4.60;99.90
14682;DHT22;7429;52.498;13.480;2024-01-11T05:13:31;-4.50;99.90
14682;DHT22;7429;52.498;13.480;2024-01-11T05:16:34;-4.50;99.90
14682;DHT22;7429;52.498;13.480;2024-01-11T05:19:37;-4.40;99.90
14682;DHT22;7429;52.498;13.480;2024-01-11T05:22:40;-4.40;99.90
14682;DHT22;7429;52.498;13.480;2024-01-11T05:25:43;-4.30;99.90
14682;DHT22;7429;52.498;13.480;2024-01-11T05:28:48;-4.20;99.90
14682;DHT22;7429;52.498;13.480;2024-01-11T05:31:51;-4.20;99.90
14682;DHT22;7429;52.498;13.480;2024-01-11T05:34:55;-4.10;99.90
14682;DHT22;7429;52.498;13.480;2024-01-11T05:37:58;-4.10;99.90
14682;DHT22;7429;52.498;13.480;2024-01-11T05:41:03;-4.10;99.90
14682;DHT22;7429;52.498;13.480;2024-01-11T05:44:10;-4.00;99.90
14682;DHT22;7429;52.498;13.480;2024-01-11T05:47:13;-4.00;99.90
14682;DHT22;7429;52.498;13.480;2024-01-11T05:50:17;-3.90;99.90
14682;DHT22;7429;52.498;13.480;2024-01-11T05:53:20;-3.80;99.90
14682;DHT22;7429;52.498;13.480;2024-01-11T05:56:23;-3.70;99.90
14682;DHT22;7429;52.498;13.480;2024-01-11T05:59:28;-3.70;99.90
14682;DHT22;7429;52.498;13.480;2024-01-11T06:02:31;-3.60;99.90
14682;DHT22;7429;52.498;13.480;2024-01-11T06:05:34;-3.60;99.90
14682;DHT22;7429;52.498;13.480;2024-01-11T06:08:38;-3.50;99.90
14682;DHT22;7429;52.498;13.480;2024-01-11T06:11:41;-3.50;99.90
14682;DHT22;7429;52.498;13.480;2024-01-11T06:14:45;-3.60;99.90
14682;DHT22;7429;52.498;13.480;2024-01-11T06:18:03;-3.60;99.90
14682;DHT22;7429;52.498;13.480;2024-01-11T06:21:25;-3.50;99.90
14682;DHT22;7429;52.498;13.480;2024-01-11T06:30:04;-3.50;99.90
14682;DHT22;7429;52.498;13.480;2024-01-11T06:33:12;-3.40;99.90
14682;DHT22;7429;52.498;13.480;2024-01-11T06:36:22;-3.40;99.90
14682;DHT22;7429;52.498;13.480;2024-01-11T06:39:35;-3.40;99.90
14682;DHT22;7429;52.498;13.480;2024-01-11T06:42:41;-3.40;99.90
14682;DHT22;7429;52.498;13.480;2024-01-11T06:46:01;-3.40;99.90
14682;DHT22;7429;52.498;13.480;2024-01-11T06:49:08;-3.30;99.90
14682;DHT22;7429;52.498;13.480;2024-01-11T06:52:12;-3.30;99.90
14682;DHT22;7429;52.498;13.480;2024-01-11T06:55:17;-3.20;99.90
14682;DHT22;7429;52.498;13.480;2024-01-11T06:58:21;-3.20;99.90
14682;DHT22;7429;52.498;13.480;2024-01-11T07:01:25;-3.20;99.90
14682;DHT22;7429;52.498;13.480;2024-01-11T07:04:28;-3.20;99.90
14682;DHT22;7429;52.498;13.480;2024-01-11T07:07:35;-3.10;99.90
14682;DHT22;7429;52.498;13.480;2024-01-11T07:10:38;-3.10;99.90
14682;DHT22;7429;52.498;13.480;2024-01-11T07:13:41;-3.00;99.90
14682;DHT22;7429;52.498;13.480;2024-01-11T07:16:46;-3.00;99.90
14682;DHT22;7429;52.498;13.480;2024-01-11T07:19:49;-3.00;99.90
14682;DHT22;7429;52.498;13.480;2024-01-11T07:22:52;-2.90;99.90
14682;DHT22;7429;52.498;13.480;2024-01-11T07:25:58;-2.90;99.90
14682;DHT22;7429;52.498;13.480;2024-01-11T07:29:01;-2.90;99.90
14682;DHT22;7429;52.498;13.480;2024-01-11T07:32:06;-2.90;99.90
14682;DHT22;7429;52.498;13.480;2024-01-11T07:35:09;-2.90;99.90
14682;DHT22;7429;52.498;13.480;2024-01-11T07:38:17;-2.80;99.90
14682;DHT22;7429;52.498;13.480;2024-01-11T07:41:21;-2.80;99.90
14682;DHT22;7429;52.498;13.480;2024-01-11T07:44:25;-2.70;99.90
14682;DHT22;7429;52.498;13.480;2024-01-11T07:47:29;-2.70;99.90
14682;DHT22;7429;52.498;13.480;2024-01-11T07:50:32;-2.60;99.90
14682;DHT22;7429;52.498;13.480;2024-01-11T07:53:37;-2.70;99.90
14682;DHT22;7429;52.498;13.480;2024-01-11T07:56:40;-2.60;99.90
14682;DHT22;7429;52.498;13.480;2024-01-11T07:59:44;-2.60;99.90
14682;DHT22;7429;52.498;13.480;2024-01-11T08:02:48;-2.60;99.90
14682;DHT22;7429;52.498;13.480;2024-01-11T08:05:52;-2.50;99.90
14682;DHT22;7429;52.498;13.480;2024-01-11T08:08:55;-2.50;99.90
14682;DHT22;7429;52.498;13.480;2024-01-11T08:11:58;-2.40;99.90
14682;DHT22;7429;52.498;13.480;2024-01-11T08:15:01;-2.40;99.90
14682;DHT22;7429;52.498;13.480;2024-01-11T08:18:06;-2.40;99.90
14682;DHT22;7429;52.498;13.480;2024-01-11T08:21:09;-2.40;99.90
14682;DHT22;7429;52.498;13.480;2024-01-11T08:24:12;-2.40;99.90
14682;DHT22;7429;52.498;13.480;2024-01-11T08:27:16;-2.40;99.90
14682;DHT22;7429;52.498;13.480;2024-01-11T08:30:21;-2.40;99.90
14682;DHT22;7429;52.498;13.480;2024-01-11T08:33:29;-2.30;99.90
14682;DHT22;7429;52.498;13.480;2024-01-11T08:36:36;-2.40;99.90
14682;DHT22;7429;52.498;13.480;2024-01-11T08:39:43;-2.30;99.90
14682;DHT22;7429;52.498;13.480;2024-01-11T08:42:52;-2.30;99.90
14682;DHT22;7429;52.498;13.480;2024-01-11T08:45:58;-2.30;99.90
14682;DHT22;7429;52.498;13.480;2024-01-11T08:49:05;-2.20;99.90
14682;DHT22;7429;52.498;13.480;2024-01-11T08:52:20;-2.30;99.90
14682;DHT22;7429;52.498;13.480;2024-01-11T08:55:29;-2.30;99.90
14682;DHT22;7429;52.498;13.480;2024-01-11T08:58:32;-2.20;99.90
14682;DHT22;7429;52.498;13.480;2024-01-11T09:01:35;-2.20;99.90
14682;DHT22;7429;52.498;13.480;2024-01-11T09:04:40;-2.20;99.90
14682;DHT22;7429;52.498;13.480;2024-01-11T09:07:44;-2.00;99.90
14682;DHT22;7429;52.498;13.480;2024-01-11T09:10:52;-2.10;99.90
14682;DHT22;7429;52.498;13.480;2024-01-11T09:13:56;-2.10;99.90
14682;DHT22;7429;52.498;13.480;2024-01-11T09:17:00;-2.10;99.90
14682;DHT22;7429;52.498;13.480;2024-01-11T09:20:07;-2.10;99.90
14682;DHT22;7429;52.498;13.480;2024-01-11T09:23:16;-2.10;99.90
14682;DHT22;7429;52.498;13.480;2024-01-11T09:26:20;-2.10;99.90
14682;DHT22;7429;52.498;13.480;2024-01-11T09:29:24;-2.10;99.90
14682;DHT22;7429;52.498;13.480;2024-01-11T09:32:29;-2.00;99.90
14682;DHT22;7429;52.498;13.480;2024-01-11T09:35:34;-2.00;99.90
14682;DHT22;7429;52.498;13.480;2024-01-11T09:38:37;-2.00;99.90
14682;DHT22;7429;52.498;13.480;2024-01-11T09:41:44;-2.00;99.90
14682;DHT22;7429;52.498;13.480;2024-01-11T09:44:56;-1.90;99.90
14682;DHT22;7429;52.498;13.480;2024-01-11T09:48:00;-2.00;99.90
14682;DHT22;7429;52.498;13.480;2024-01-11T09:51:10;-1.90;99.90
14682;DHT22;7429;52.498;13.480;2024-01-11T09:54:18;-1.90;99.90
14682;DHT22;7429;52.498;13.480;2024-01-11T09:57:24;-1.80;99.90
14682;DHT22;7429;52.498;13.480;2024-01-11T10:00:34;-1.80;99.90
14682;DHT22;7429;52.498;13.480;2024-01-11T10:03:39;-1.90;99.90
14682;DHT22;7429;52.498;13.480;2024-01-11T10:06:47;-1.80;99.90
14682;DHT22;7429;52.498;13.480;2024-01-11T10:09:54;-1.90;99.90
14682;DHT22;7429;52.498;13.480;2024-01-11T10:13:04;-1.80;99.90
14682;DHT22;7429;52.498;13.480;2024-01-11T10:16:09;-1.80;99.90
14682;DHT22;7429;52.498;13.480;2024-01-11T10:19:15;-1.80;99.90
14682;DHT22;7429;52.498;13.480;2024-01-11T10:22:20;-1.80;99.90
14682;DHT22;7429;52.498;13.480;2024-01-11T10:25:28;-1.70;99.90
14682;DHT22;7429;52.498;13.480;2024-01-11T10:28:31;-1.70;99.90
14682;DHT22;7429;52.498;13.480;2024-01-11T10:31:40;-1.60;99.90
14682;DHT22;7429;52.498;13.480;2024-01-11T10:34:43;-1.60;99.90
14682;DHT22;7429;52.498;13.480;2024-01-11T10:37:51;-1.60;99.90
14682;DHT22;7429;52.498;13.480;2024-01-11T10:41:00;-1.60;99.90
14682;DHT22;7429;52.498;13.480;2024-01-11T10:44:03;-1.60;99.90
14682;DHT22;7429;52.498;13.480;2024-01-11T10:47:10;-1.60;99.90
14682;DHT22;7429;52.498;13.480;2024-01-11T10:50:16;-1.60;99.90
14682;DHT22;7429;52.498;13.480;2024-01-11T10:53:25;-1.60;99.90
14682;DHT22;7429;52.498;13.480;2024-01-11T10:56:34;-1.50;99.90
14682;DHT22;7429;52.498;13.480;2024-01-11T10:59:40;-1.50;99.90
14682;DHT22;7429;52.498;13.480;2024-01-11T11:02:51;-1.60;99.90
14682;DHT22;7429;52.498;13.480;2024-01-11T11:05:57;-1.50;99.90
14682;DHT22;7429;52.498;13.480;2024-01-11T11:09:03;-1.50;99.90
14682;DHT22;7429;52.498;13.480;2024-01-11T11:12:08;-1.50;99.90
14682;DHT22;7429;52.498;13.480;2024-01-11T11:15:12;-1.50;99.90
14682;DHT22;7429;52.498;13.480;2024-01-11T11:18:15;-1.50;99.90
14682;DHT22;7429;52.498;13.480;2024-01-11T11:21:20;-1.50;99.90
14682;DHT22;7429;52.498;13.480;2024-01-11T11:24:26;-1.50;99.90
14682;DHT22;7429;52.498;13.480;2024-01-11T11:27:32;-1.50;99.90
14682;DHT22;7429;52.498;13.480;2024-01-11T11:30:37;-1.50;99.90
14682;DHT22;7429;52.498;13.480;2024-01-11T11:33:43;-1.40;99.90
14682;DHT22;7429;52.498;13.480;2024-01-11T11:36:47;-1.40;99.90
14682;DHT22;7429;52.498;13.480;2024-01-11T11:39:52;-1.40;99.90
14682;DHT22;7429;52.498;13.480;2024-01-11T11:42:56;-1.30;99.90
14682;DHT22;7429;52.498;13.480;2024-01-11T11:46:00;-1.30;99.90
14682;DHT22;7429;52.498;13.480;2024-01-11T11:49:09;-1.30;99.90
14682;DHT22;7429;52.498;13.480;2024-01-11T11:52:15;-1.20;99.90
14682;DHT22;7429;52.498;13.480;2024-01-11T11:55:20;-1.20;99.90
14682;DHT22;7429;52.498;13.480;2024-01-11T11:58:27;-1.10;99.90
14682;DHT22;7429;52.498;13.480;2024-01-11T12:01:31;-1.10;99.90
14682;DHT22;7429;52.498;13.480;2024-01-11T12:04:41;-1.00;99.90
14682;DHT22;7429;52.498;13.480;2024-01-11T12:07:44;-1.10;99.90
14682;DHT22;7429;52.498;13.480;2024-01-11T12:10:50;-1.00;99.90
14682;DHT22;7429;52.498;13.480;2024-01-11T12:13:54;-0.90;99.90
14682;DHT22;7429;52.498;13.480;2024-01-11T12:17:00;-0.90;99.90
14682;DHT22;7429;52.498;13.480;2024-01-11T12:20:06;-0.90;99.90
14682;DHT22;7429;52.498;13.480;2024-01-11T12:23:10;-0.80;99.90
14682;DHT22;7429;52.498;13.480;2024-01-11T12:26:17;-0.80;99.90
14682;DHT22;7429;52.498;13.480;2024-01-11T12:29:28;-0.80;99.90
14682;DHT22;7429;52.498;13.480;2024-01-11T12:32:48;-0.70;99.90
14682;DHT22;7429;52.498;13.480;2024-01-11T12:35:55;-0.70;99.90
14682;DHT22;7429;52.498;13.480;2024-01-11T12:39:26;-0.70;99.90
14682;DHT22;7429;52.498;13.480;2024-01-11T12:44:03;-0.70;99.90
14682;DHT22;7429;52.498;13.480;2024-01-11T12:47:10;-0.60;99.90
14682;DHT22;7429;52.498;13.480;2024-01-11T12:50:19;-0.60;99.90
14682;DHT22;7429;52.498;13.480;2024-01-11T12:53:31;-0.60;99.90
14682;DHT22;7429;52.498;13.480;2024-01-11T12:56:41;-0.50;99.90
14682;DHT22;7429;52.498;13.480;2024-01-11T12:59:48;-0.50;99.90
14682;DHT22;7429;52.498;13.480;2024-01-11T13:02:54;-0.50;99.90
14682;DHT22;7429;52.498;13.480;2024-01-11T13:06:02;-0.40;99.90
14682;DHT22;7429;52.498;13.480;2024-01-11T13:09:09;-0.40;99.90
14682;DHT22;7429;52.498;13.480;2024-01-11T13:12:17;-0.40;99.90
14682;DHT22;7429;52.498;13.480;2024-01-11T13:15:24;-0.30;99.90
14682;DHT22;7429;52.498;13.480;2024-01-11T13:18:30;-0.40;99.90
14682;DHT22;7429;52.498;13.480;2024-01-11T13:21:34;-0.40;99.90
14682;DHT22;7429;52.498;13.480;2024-01-11T13:24:37;-0.30;99.90
14682;DHT22;7429;52.498;13.480;2024-01-11T13:27:40;-0.30;99.90
14682;DHT22;7429;52.498;13.480;2024-01-11T13:30:47;-0.20;99.90
14682;DHT22;7429;52.498;13.480;2024-01-11T13:33:51;-0.30;99.90
14682;DHT22;7429;52.498;13.480;2024-01-11T13:36:54;-0.30;99.90
14682;DHT22;7429;52.498;13.480;2024-01-11T13:39:59;-0.30;99.90
14682;DHT22;7429;52.498;13.480;2024-01-11T13:43:03;-0.30;99.90
14682;DHT22;7429;52.498;13.480;2024-01-11T13:46:07;-0.30;99.90
14682;DHT22;7429;52.498;13.480;2024-01-11T13:49:11;-0.30;99.90
14682;DHT22;7429;52.498;13.480;2024-01-11T13:52:15;-0.30;99.90
14682;DHT22;7429;52.498;13.480;2024-01-11T13:55:21;-0.30;99.90
14682;DHT22;7429;52.498;13.480;2024-01-11T13:58:25;-0.30;99.90
14682;DHT22;7429;52.498;13.480;2024-01-11T14:01:29;-0.30;99.90
14682;DHT22;7429;52.498;13.480;2024-01-11T14:04:34;-0.30;99.90
14682;DHT22;7429;52.498;13.480;2024-01-11T14:07:39;-0.30;99.90
14682;DHT22;7429;52.498;13.480;2024-01-11T14:10:42;-0.30;99.90
14682;DHT22;7429;52.498;13.480;2024-01-11T14:13:46;-0.30;99.90
14682;DHT22;7429;52.498;13.480;2024-01-11T14:16:52;-0.30;99.90
14682;DHT22;7429;52.498;13.480;2024-01-11T14:19:55;-0.30;99.90
14682;DHT22;7429;52.498;13.480;2024-01-11T14:23:00;-0.40;99.90
14682;DHT22;7429;52.498;13.480;2024-01-11T14:26:03;-0.30;99.90
14682;DHT22;7429;52.498;13.480;2024-01-11T14:29:06;-0.30;99.90
14682;DHT22;7429;52.498;13.480;2024-01-11T14:32:12;-0.40;99.90
14682;DHT22;7429;52.498;13.480;2024-01-11T14:35:34;-0.40;99.90
14682;DHT22;7429;52.498;13.480;2024-01-11T14:38:37;-0.40;99.90
14682;DHT22;7429;52.498;13.480;2024-01-11T14:41:41;-0.30;99.90
14682;DHT22;7429;52.498;13.480;2024-01-11T14:44:44;-0.30;99.90
14682;DHT22;7429;52.498;13.480;2024-01-11T14:47:49;-0.30;99.90
14682;DHT22;7429;52.498;13.480;2024-01-11T14:50:52;-0.30;99.90
14682;DHT22;7429;52.498;13.480;2024-01-11T14:53:56;-0.30;99.90
14682;DHT22;7429;52.498;13.480;2024-01-11T14:57:00;-0.30;99.90
14682;DHT22;7429;52.498;13.480;2024-01-11T15:00:08;-0.30;99.90
14682;DHT22;7429;52.498;13.480;2024-01-11T15:03:13;-0.30;99.90
14682;DHT22;7429;52.498;13.480;2024-01-11T15:06:19;-0.30;99.90
14682;DHT22;7429;52.498;13.480;2024-01-11T15:09:22;-0.30;99.90
14682;DHT22;7429;52.498;13.480;2024-01-11T15:12:27;-0.30;99.90
14682;DHT22;7429;52.498;13.480;2024-01-11T15:15:33;-0.30;99.90
14682;DHT22;7429;52.498;13.480;2024-01-11T15:18:40;-0.30;99.90
14682;DHT22;7429;52.498;13.480;2024-01-11T15:21:47;-0.30;99.90
14682;DHT22;7429;52.498;13.480;2024-01-11T15:24:54;-0.30;99.90
14682;DHT22;7429;52.498;13.480;2024-01-11T15:28:02;-0.30;99.90
14682;DHT22;7429;52.498;13.480;2024-01-11T15:31:11;-0.30;99.90
14682;DHT22;7429;52.498;13.480;2024-01-11T15:34:19;-0.20;99.90
14682;DHT22;7429;52.498;13.480;2024-01-11T15:37:25;-0.30;99.90
14682;DHT22;7429;52.498;13.480;2024-01-11T15:40:35;-0.30;99.90
14682;DHT22;7429;52.498;13.480;2024-01-11T15:43:39;-0.30;99.90
14682;DHT22;7429;52.498;13.480;2024-01-11T15:46:42;-0.10;99.90
14682;DHT22;7429;52.498;13.480;2024-01-11T15:49:46;-0.20;99.90
14682;DHT22;7429;52.498;13.480;2024-01-11T15:52:50;-0.20;99.90
14682;DHT22;7429;52.498;13.480;2024-01-11T15:55:53;-0.20;99.90
14682;DHT22;7429;52.498;13.480;2024-01-11T15:58:59;-0.10;99.90
14682;DHT22;7429;52.498;13.480;2024-01-11T16:02:05;-0.10;99.90
14682;DHT22;7429;52.498;13.480;2024-01-11T16:05:15;-0.10;99.90
14682;DHT22;7429;52.498;13.480;2024-01-11T16:08:18;0.00;99.90
14682;DHT22;7429;52.498;13.480;2024-01-11T16:11:21;-0.10;99.90
14682;DHT22;7429;52.498;13.480;2024-01-11T16:14:28;-0.10;99.90
14682;DHT22;7429;52.498;13.480;2024-01-11T16:17:31;0.00;99.90
14682;DHT22;7429;52.498;13.480;2024-01-11T16:20:37;0.00;99.90
14682;DHT22;7429;52.498;13.480;2024-01-11T16:23:41;0.00;99.90
14682;DHT22;7429;52.498;13.480;2024-01-11T16:26:45;0.10;99.90
14682;DHT22;7429;52.498;13.480;2024-01-11T16:29:48;0.00;99.90
14682;DHT22;7429;52.498;13.480;2024-01-11T16:32:51;0.00;99.90
14682;DHT22;7429;52.498;13.480;2024-01-11T16:35:58;0.00;99.90
14682;DHT22;7429;52.498;13.480;2024-01-11T16:39:02;0.00;99.90
14682;DHT22;7429;52.498;13.480;2024-01-11T16:42:13;0.10;99.90
14682;DHT22;7429;52.498;13.480;2024-01-11T16:45:20;0.10;99.90
14682;DHT22;7429;52.498;13.480;2024-01-11T16:48:30;0.10;99.90
14682;DHT22;7429;52.498;13.480;2024-01-11T16:51:41;0.10;99.90
14682;DHT22;7429;52.498;13.480;2024-01-11T16:54:56;0.10;99.90
14682;DHT22;7429;52.498;13.480;2024-01-11T16:58:02;0.20;99.90
14682;DHT22;7429;52.498;13.480;2024-01-11T17:01:06;0.20;99.90
14682;DHT22;7429;52.498;13.480;2024-01-11T17:04:10;0.20;99.90
14682;DHT22;7429;52.498;13.480;2024-01-11T17:07:18;0.20;99.90
14682;DHT22;7429;52.498;13.480;2024-01-11T17:10:23;0.30;99.90
14682;DHT22;7429;52.498;13.480;2024-01-11T17:13:27;0.30;99.90
14682;DHT22;7429;52.498;13.480;2024-01-11T17:16:33;0.30;99.90
14682;DHT22;7429;52.498;13.480;2024-01-11T17:19:37;0.20;99.90
14682;DHT22;7429;52.498;13.480;2024-01-11T17:22:42;0.30;99.90
14682;DHT22;7429;52.498;13.480;2024-01-11T17:25:53;0.30;99.90
14682;DHT22;7429;52.498;13.480;2024-01-11T17:29:01;0.30;99.90
14682;DHT22;7429;52.498;13.480;2024-01-11T17:32:05;0.30;99.90
14682;DHT22;7429;52.498;13.480;2024-01-11T17:35:11;0.30;99.90
14682;DHT22;7429;52.498;13.480;2024-01-11T17:38:19;0.30;99.90
14682;DHT22;7429;52.498;13.480;2024-01-11T17:41:22;0.40;99.90
14682;DHT22;7429;52.498;13.480;2024-01-11T17:44:27;0.40;99.90
14682;DHT22;7429;52.498;13.480;2024-01-11T17:47:30;0.30;99.90
14682;DHT22;7429;52.498;13.480;2024-01-11T17:50:33;0.30;99.90
14682;DHT22;7429;52.498;13.480;2024-01-11T17:53:38;0.40;99.90
14682;DHT22;7429;52.498;13.480;2024-01-11T17:56:41;0.40;99.90
14682;DHT22;7429;52.498;13.480;2024-01-11T17:59:45;0.40;99.90
14682;DHT22;7429;52.498;13.480;2024-01-11T18:02:48;0.50;99.90
14682;DHT22;7429;52.498;13.480;2024-01-11T18:05:54;0.50;99.90
14682;DHT22;7429;52.498;13.480;2024-01-11T18:09:00;0.50;99.90
14682;DHT22;7429;52.498;13.480;2024-01-11T18:12:05;0.60;99.90
14682;DHT22;7429;52.498;13.480;2024-01-11T18:15:09;0.60;99.90
14682;DHT22;7429;52.498;13.480;2024-01-11T18:18:15;0.60;99.90
14682;DHT22;7429;52.498;13.480;2024-01-11T18:21:19;0.50;99.90
14682;DHT22;7429;52.498;13.480;2024-01-11T18:24:23;0.50;99.90
14682;DHT22;7429;52.498;13.480;2024-01-11T18:27:27;0.50;99.90
14682;DHT22;7429;52.498;13.480;2024-01-11T18:30:30;0.50;99.90
14682;DHT22;7429;52.498;13.480;2024-01-11T18:33:43;0.50;99.90
14682;DHT22;7429;52.498;13.480;2024-01-11T18:36:47;0.60;99.90
14682;DHT22;7429;52.498;13.480;2024-01-11T18:39:52;0.60;99.90
14682;DHT22;7429;52.498;13.480;2024-01-11T18:42:58;0.60;99.90
14682;DHT22;7429;52.498;13.480;2024-01-11T18:46:03;0.70;99.90
14682;DHT22;7429;52.498;13.480;2024-01-11T18:49:06;0.70;99.90
14682;DHT22;7429;52.498;13.480;2024-01-11T18:52:10;0.60;99.90
14682;DHT22;7429;52.498;13.480;2024-01-11T18:55:15;0.70;99.90
14682;DHT22;7429;52.498;13.480;2024-01-11T18:58:23;0.70;99.90
14682;DHT22;7429;52.498;13.480;2024-01-11T19:01:27;0.80;99.90
14682;DHT22;7429;52.498;13.480;2024-01-11T19:04:30;0.80;99.90
14682;DHT22;7429;52.498;13.480;2024-01-11T19:07:34;0.80;99.90
14682;DHT22;7429;52.498;13.480;2024-01-11T19:10:39;0.90;99.90
14682;DHT22;7429;52.498;13.480;2024-01-11T19:13:43;0.80;99.90
14682;DHT22;7429;52.498;13.480;2024-01-11T19:16:46;0.90;99.90
14682;DHT22;7429;52.498;13.480;2024-01-11T19:19:49;0.90;99.90
14682;DHT22;7429;52.498;13.480;2024-01-11T19:22:56;0.90;99.90
14682;DHT22;7429;52.498;13.480;2024-01-11T19:26:02;0.90;99.90
14682;DHT22;7429;52.498;13.480;2024-01-11T19:29:05;0.90;99.90
14682;DHT22;7429;52.498;13.480;2024-01-11T19:32:08;1.00;99.90
14682;DHT22;7429;52.498;13.480;2024-01-11T19:35:12;0.90;99.90
14682;DHT22;7429;52.498;13.480;2024-01-11T19:38:15;0.90;99.90